createdAt,value
2022-12-07T00:01:48.149Z,99790.09
2022-12-07T00:04:19.249Z,99790.25
2022-12-07T00:06:53.674Z,99789.39
2022-12-07T00:09:22.299Z,99794.20
2022-12-07T00:11:52.672Z,99794.40
2022-12-07T00:14:22.236Z,99790.52
2022-12-07T00:16:52.768Z,99787.34
2022-12-07T00:19:21.493Z,99783.17
2022-12-07T00:21:50.058Z,99785.14
2022-12-07T00:24:18.712Z,99780.59
2022-12-07T00:26:47.278Z,99781.66
2022-12-07T00:29:22.704Z,99780.67
2022-12-07T00:31:51.274Z,99779.64
2022-12-07T00:34:22.977Z,99775.56
2022-12-07T00:36:51.800Z,99771.33
2022-12-07T00:39:20.469Z,99770.98
2022-12-07T00:41:49.018Z,99764.80
2022-12-07T00:44:17.562Z,99758.80
2022-12-07T00:46:46.782Z,99758.31
2022-12-07T00:49:15.535Z,99758.02
2022-12-07T00:51:44.067Z,99755.41
2022-12-07T00:54:12.593Z,99755.52
2022-12-07T00:56:41.339Z,99762.04
2022-12-07T00:59:17.676Z,99762.52
2022-12-07T01:01:46.242Z,99763.59
2022-12-07T01:04:15.199Z,99765.80
2022-12-07T01:06:43.748Z,99768.19
2022-12-07T01:09:12.281Z,99764.20
2022-12-07T01:11:40.978Z,99764.11
2022-12-07T01:14:10.312Z,99759.05
2022-12-07T01:16:40.078Z,99761.46
2022-12-07T01:19:08.647Z,99754.24
2022-12-07T01:21:39.114Z,99757.90
2022-12-07T01:24:11.880Z,99759.31
2022-12-07T01:26:40.528Z,99761.08
2022-12-07T01:29:09.057Z,99762.85
2022-12-07T01:31:37.570Z,99758.77
2022-12-07T01:34:06.138Z,99761.08
2022-12-07T01:36:37.597Z,99759.43
2022-12-07T01:39:08.918Z,99759.69
2022-12-07T01:41:41.729Z,99763.33
2022-12-07T01:44:31.962Z,99763.36
2022-12-07T01:47:04.137Z,99763.39
2022-12-07T01:49:46.627Z,99759.11
2022-12-07T01:52:24.267Z,99763.20
2022-12-07T01:55:02.645Z,99760.09
2022-12-07T01:57:35.127Z,99763.50
2022-12-07T02:00:06.733Z,99763.02
2022-12-07T02:02:45.234Z,99763.48
2022-12-07T02:05:15.055Z,99762.27
2022-12-07T02:07:43.651Z,99768.91
2022-12-07T02:10:25.392Z,99769.43
2022-12-07T02:13:24.969Z,99764.51
2022-12-07T02:16:24.552Z,99764.35
2022-12-07T02:19:18.332Z,99763.04
2022-12-07T02:22:08.203Z,99758.73
2022-12-07T02:24:54.206Z,99759.06
2022-12-07T02:27:46.886Z,99758.04
2022-12-07T02:30:21.628Z,99760.08
2022-12-07T02:33:12.969Z,99755.95
2022-12-07T02:35:41.469Z,99761.14
2022-12-07T02:38:17.265Z,99757.16
2022-12-07T02:41:12.230Z,99757.83
2022-12-07T02:43:53.644Z,99757.95
2022-12-07T02:46:50.678Z,99756.88
2022-12-07T02:49:20.227Z,99762.73
2022-12-07T02:51:48.752Z,99759.86
2022-12-07T02:54:21.419Z,99765.43
2022-12-07T02:57:18.470Z,99759.48
2022-12-07T03:00:09.026Z,99760.91
2022-12-07T03:02:59.037Z,99751.86
2022-12-07T03:05:45.397Z,99748.00
2022-12-07T03:08:16.738Z,99752.55
2022-12-07T03:11:03.900Z,99748.45
2022-12-07T03:13:47.505Z,99750.17
2022-12-07T03:16:41.945Z,99751.75
2022-12-07T03:19:21.566Z,99750.92
2022-12-07T03:21:59.062Z,99754.39
2022-12-07T03:24:38.168Z,99750.96
2022-12-07T03:27:24.233Z,99751.06
2022-12-07T03:30:09.751Z,99750.85
2022-12-07T03:33:01.269Z,99751.52
2022-12-07T03:35:43.805Z,99745.13
2022-12-07T03:38:41.743Z,99742.34
2022-12-07T03:41:20.663Z,99740.96
2022-12-07T03:43:49.763Z,99740.41
2022-12-07T03:46:52.303Z,99739.21
2022-12-07T03:49:52.735Z,99731.97
2022-12-07T03:52:43.090Z,99730.92
2022-12-07T03:55:28.837Z,99726.03
2022-12-07T03:58:12.306Z,99720.12
2022-12-07T04:00:43.680Z,99724.40
2022-12-07T04:03:12.791Z,99727.11
2022-12-07T04:05:42.087Z,99728.04
2022-12-07T04:08:11.186Z,99727.15
2022-12-07T04:10:39.805Z,99727.77
2022-12-07T04:13:08.365Z,99728.38
2022-12-07T04:15:37.020Z,99729.74
2022-12-07T04:18:05.778Z,99729.23
2022-12-07T04:20:34.415Z,99729.88
2022-12-07T04:23:03.041Z,99732.30
2022-12-07T04:25:31.603Z,99730.04
2022-12-07T04:28:00.781Z,99728.52
2022-12-07T04:30:29.668Z,99727.11
2022-12-07T04:32:58.158Z,99724.84
2022-12-07T04:35:26.702Z,99726.19
2022-12-07T04:37:55.221Z,99727.24
2022-12-07T04:40:23.754Z,99727.09
2022-12-07T04:42:52.256Z,99729.64
2022-12-07T04:45:20.897Z,99725.38
2022-12-07T04:47:49.395Z,99726.29
2022-12-07T04:50:17.936Z,99724.19
2022-12-07T04:52:46.426Z,99721.37
2022-12-07T04:55:15.052Z,99719.41
2022-12-07T04:57:43.636Z,99723.84
2022-12-07T05:00:13.699Z,99720.52
2022-12-07T05:02:42.206Z,99720.64
2022-12-07T05:05:10.729Z,99721.98
2022-12-07T05:07:39.307Z,99718.86
2022-12-07T05:10:08.940Z,99718.27
2022-12-07T05:12:37.429Z,99719.09
2022-12-07T05:15:06.421Z,99717.48
2022-12-07T05:17:35.203Z,99715.30
2022-12-07T05:20:04.889Z,99716.93
2022-12-07T05:22:34.128Z,99716.66
2022-12-07T05:25:02.846Z,99719.19
2022-12-07T05:27:31.370Z,99721.55
2022-12-07T05:30:00.158Z,99718.63
2022-12-07T05:32:29.159Z,99714.14
2022-12-07T05:34:57.773Z,99715.88
2022-12-07T05:37:27.057Z,99717.77
2022-12-07T05:39:55.580Z,99717.60
2022-12-07T05:42:24.125Z,99721.09
2022-12-07T05:44:52.631Z,99722.64
2022-12-07T05:47:21.332Z,99720.80
2022-12-07T05:49:50.019Z,99726.69
2022-12-07T05:52:18.562Z,99727.38
2022-12-07T05:54:47.058Z,99725.95
2022-12-07T05:57:15.712Z,99728.02
2022-12-07T05:59:44.264Z,99725.05
2022-12-07T06:02:16.387Z,99726.05
2022-12-07T06:04:47.853Z,99724.46
2022-12-07T06:07:18.165Z,99721.81
2022-12-07T06:09:46.726Z,99720.93
2022-12-07T06:12:35.072Z,99715.39
2022-12-07T06:15:04.148Z,99718.97
2022-12-07T06:17:33.187Z,99714.79
2022-12-07T06:20:02.003Z,99715.63
2022-12-07T06:22:30.792Z,99718.19
2022-12-07T06:24:59.273Z,99721.79
2022-12-07T06:27:27.822Z,99722.34
2022-12-07T06:29:56.322Z,99722.00
2022-12-07T06:32:24.858Z,99721.50
2022-12-07T06:34:53.380Z,99722.01
2022-12-07T06:37:21.872Z,99716.49
2022-12-07T06:39:50.443Z,99719.77
2022-12-07T06:42:18.941Z,99724.30
2022-12-07T06:44:47.541Z,99723.63
2022-12-07T06:50:07.123Z,99719.42
2022-12-07T06:52:37.134Z,99715.98
2022-12-07T06:55:06.404Z,99720.78
2022-12-07T06:57:34.905Z,99714.86
2022-12-07T07:00:05.824Z,99713.98
2022-12-07T07:02:34.798Z,99712.05
2022-12-07T07:05:04.506Z,99716.55
2022-12-07T07:07:41.618Z,99712.35
2022-12-07T07:10:20.657Z,99716.48
2022-12-07T07:12:52.989Z,99717.34
2022-12-07T07:15:24.235Z,99713.21
2022-12-07T07:17:52.781Z,99714.20
2022-12-07T07:20:21.776Z,99708.63
2022-12-07T07:22:50.556Z,99709.31
2022-12-07T07:25:19.859Z,99708.05
2022-12-07T07:27:48.471Z,99711.13
2022-12-07T07:30:17.217Z,99714.02
2022-12-07T07:32:45.815Z,99716.71
2022-12-07T07:35:15.244Z,99711.58
2022-12-07T07:37:43.813Z,99709.23
2022-12-07T07:40:15.239Z,99705.16
2022-12-07T07:42:43.788Z,99709.04
2022-12-07T07:45:12.370Z,99710.45
2022-12-07T07:47:40.931Z,99711.52
2022-12-07T07:50:10.130Z,99709.60
2022-12-07T07:52:38.875Z,99712.16
2022-12-07T07:55:11.050Z,99708.85
2022-12-07T07:57:41.186Z,99715.50
2022-12-07T08:00:14.355Z,99716.16
2022-12-07T08:02:44.144Z,99711.15
2022-12-07T08:05:14.402Z,99712.60
2022-12-07T08:07:43.219Z,99711.34
2022-12-07T08:10:14.767Z,99717.00
2022-12-07T08:13:03.407Z,99719.80
2022-12-07T08:15:32.388Z,99719.18
2022-12-07T08:18:01.021Z,99717.66
2022-12-07T08:20:33.764Z,99725.50
2022-12-07T08:23:02.675Z,99723.14
2022-12-07T08:25:32.533Z,99716.89
2022-12-07T08:28:01.804Z,99719.42
2022-12-07T08:30:31.607Z,99721.42
2022-12-07T08:33:00.183Z,99723.86
2022-12-07T08:35:28.761Z,99722.08
2022-12-07T08:37:58.968Z,99727.40
2022-12-07T08:40:27.531Z,99725.45
2022-12-07T08:42:56.279Z,99725.02
2022-12-07T08:45:27.485Z,99723.20
2022-12-07T08:48:14.654Z,99722.81
2022-12-07T08:50:47.748Z,99714.96
2022-12-07T08:53:18.303Z,99710.17
2022-12-07T08:55:48.314Z,99706.42
2022-12-07T08:58:17.349Z,99706.48
2022-12-07T09:00:45.891Z,99705.42
2022-12-07T09:03:14.409Z,99705.98
2022-12-07T09:05:43.406Z,99703.24
2022-12-07T09:08:12.110Z,99699.13
2022-12-07T09:10:40.716Z,99696.86
2022-12-07T09:13:09.361Z,99691.90
2022-12-07T09:15:37.866Z,99693.77
2022-12-07T09:18:06.638Z,99687.65
2022-12-07T09:20:35.147Z,99689.41
2022-12-07T09:23:03.809Z,99684.44
2022-12-07T09:25:32.343Z,99680.93
2022-12-07T09:28:01.214Z,99676.16
2022-12-07T09:30:29.797Z,99672.61
2022-12-07T09:32:59.107Z,99671.05
2022-12-07T09:35:28.029Z,99665.58
2022-12-07T09:37:56.870Z,99660.91
2022-12-07T09:40:25.562Z,99658.20
2022-12-07T09:42:57.123Z,99652.92
2022-12-07T09:45:37.105Z,99650.00
2022-12-07T09:48:10.029Z,99640.11
2022-12-07T09:50:38.605Z,99641.69
2022-12-07T09:53:16.435Z,99640.07
2022-12-07T09:55:45.747Z,99639.75
2022-12-07T09:58:27.596Z,99639.82
2022-12-07T10:01:13.708Z,99639.56
2022-12-07T10:03:54.299Z,99639.20
2022-12-07T10:06:23.041Z,99635.77
2022-12-07T10:08:51.555Z,99633.36
2022-12-07T10:11:20.133Z,99637.75
2022-12-07T10:13:55.067Z,99627.57
2022-12-07T10:16:40.829Z,99624.16
2022-12-07T10:19:25.401Z,99619.08
2022-12-07T10:22:13.125Z,99618.05
2022-12-07T10:24:44.145Z,99612.69
2022-12-07T10:27:33.656Z,99607.02
2022-12-07T10:30:09.231Z,99604.80
2022-12-07T10:32:37.916Z,99601.02
2022-12-07T10:35:30.838Z,99598.88
2022-12-07T10:38:01.061Z,99597.15
2022-12-07T10:40:34.777Z,99595.65
2022-12-07T10:43:13.899Z,99592.73
2022-12-07T10:46:02.571Z,99594.05
2022-12-07T10:48:41.443Z,99587.95
2022-12-07T10:51:39.132Z,99587.11
2022-12-07T10:54:22.500Z,99588.58
2022-12-07T10:57:21.375Z,99593.48
2022-12-07T11:00:17.451Z,99592.20
2022-12-07T11:03:04.462Z,99590.30
2022-12-07T11:06:02.492Z,99594.70
2022-12-07T11:08:59.597Z,99601.02
2022-12-07T11:11:51.889Z,99604.95
2022-12-07T11:14:42.959Z,99606.03
2022-12-07T11:27:16.131Z,99599.05
2022-12-07T11:30:13.762Z,99597.12
2022-12-07T11:33:08.971Z,99604.17
2022-12-07T11:36:04.521Z,99585.67
2022-12-07T11:39:04.926Z,99579.60
2022-12-07T11:41:39.997Z,99576.18
2022-12-07T11:44:15.235Z,99580.48
2022-12-07T11:46:54.435Z,99579.66
2022-12-07T11:50:09.581Z,99576.83
2022-12-07T11:52:59.689Z,99574.88
2022-12-07T11:55:41.457Z,99569.98
2022-12-07T11:58:19.998Z,99574.86
2022-12-07T12:00:56.165Z,99572.19
2022-12-07T12:03:35.188Z,99576.11
2022-12-07T12:06:04.121Z,99571.58
2022-12-07T12:15:26.371Z,99573.25
2022-12-07T12:18:28.826Z,99575.14
2022-12-07T12:21:10.669Z,99570.62
2022-12-07T12:23:56.540Z,99575.64
2022-12-07T12:26:28.424Z,99576.86
2022-12-07T12:29:10.026Z,99575.88
2022-12-07T12:31:42.573Z,99573.73
2022-12-07T12:34:55.457Z,99574.30
2022-12-07T12:37:35.948Z,99569.39
2022-12-07T12:40:17.041Z,99568.07
2022-12-07T12:42:54.288Z,99568.48
2022-12-07T12:45:28.233Z,99565.25
2022-12-07T12:48:04.722Z,99557.95
2022-12-07T12:50:39.022Z,99558.61
2022-12-07T12:53:26.858Z,99557.00
2022-12-07T12:56:44.060Z,99559.15
2022-12-07T13:00:05.007Z,99560.27
2022-12-07T13:02:38.637Z,99557.31
2022-12-07T13:05:11.422Z,99556.76
2022-12-07T13:07:51.070Z,99558.47
2022-12-07T13:10:48.317Z,99562.04
2022-12-07T13:13:18.993Z,99563.40
2022-12-07T13:15:54.959Z,99567.89
2022-12-07T13:18:29.642Z,99567.73
2022-12-07T13:21:02.634Z,99567.19
2022-12-07T13:23:46.931Z,99563.27
2022-12-07T13:26:24.447Z,99569.52
2022-12-07T13:29:21.172Z,99569.52
2022-12-07T13:31:58.135Z,99567.70
2022-12-07T13:34:42.273Z,99566.21
2022-12-07T13:37:21.706Z,99568.77
2022-12-07T13:40:16.990Z,99568.17
2022-12-07T13:42:45.848Z,99568.83
2022-12-07T13:45:49.428Z,99569.62
2022-12-07T13:48:20.853Z,99570.47
2022-12-07T13:50:58.038Z,99571.72
2022-12-07T13:53:31.338Z,99573.08
2022-12-07T13:56:02.513Z,99573.98
2022-12-07T13:58:34.284Z,99573.74
2022-12-07T14:01:02.971Z,99569.79
2022-12-07T14:03:35.167Z,99568.13
2022-12-07T14:06:18.499Z,99568.00
2022-12-07T14:08:47.554Z,99566.36
2022-12-07T14:11:21.716Z,99566.64
2022-12-07T14:14:04.759Z,99565.07
2022-12-07T14:16:37.345Z,99572.02
2022-12-07T14:19:46.379Z,99566.71
2022-12-07T14:22:21.579Z,99568.52
2022-12-07T14:24:50.758Z,99567.58
2022-12-07T14:27:26.963Z,99571.14
2022-12-07T14:29:55.480Z,99571.77
2022-12-07T14:32:31.920Z,99572.39
2022-12-07T14:35:15.460Z,99570.61
2022-12-07T14:37:47.501Z,99568.91
2022-12-07T14:40:28.509Z,99569.81
2022-12-07T14:43:23.462Z,99571.41
2022-12-07T14:45:51.947Z,99574.80
2022-12-07T14:54:02.144Z,99574.63
2022-12-07T14:56:30.641Z,99569.92
2022-12-07T14:58:59.283Z,99572.30
2022-12-07T15:01:27.819Z,99574.33
2022-12-07T15:03:56.374Z,99571.19
2022-12-07T15:06:25.336Z,99576.48
2022-12-07T15:08:53.973Z,99578.19
2022-12-07T15:11:22.618Z,99574.36
2022-12-07T15:14:09.656Z,99575.56
2022-12-07T15:17:07.370Z,99579.90
2022-12-07T15:19:31.174Z,99581.05
2022-12-07T15:22:00.901Z,99579.25
2022-12-07T15:24:29.651Z,99585.31
2022-12-07T15:26:58.361Z,99590.14
2022-12-07T15:29:27.000Z,99587.02
2022-12-07T15:31:57.447Z,99586.95
2022-12-07T15:34:34.847Z,99589.66
2022-12-07T15:37:07.431Z,99588.88
2022-12-07T15:39:37.955Z,99591.14
2022-12-07T15:42:06.539Z,99589.75
2022-12-07T15:44:53.952Z,99590.91
2022-12-07T15:47:22.523Z,99592.66
2022-12-07T15:49:51.063Z,99590.33
2022-12-07T15:52:20.481Z,99596.31
2022-12-07T15:54:49.042Z,99596.94
2022-12-07T15:57:20.820Z,99595.90
2022-12-07T15:59:54.744Z,99592.96
2022-12-07T16:02:24.492Z,99594.54
2022-12-07T16:04:54.486Z,99594.41
2022-12-07T16:07:23.188Z,99596.70
2022-12-07T16:09:51.801Z,99600.52
2022-12-07T16:12:20.394Z,99602.23
2022-12-07T16:14:48.906Z,99602.00
2022-12-07T16:17:17.432Z,99604.86
2022-12-07T16:19:46.099Z,99600.45
2022-12-07T16:22:14.671Z,99607.92
2022-12-07T16:24:43.385Z,99604.08
2022-12-07T16:27:11.994Z,99603.11
2022-12-07T16:29:40.587Z,99604.58
2022-12-07T16:32:09.222Z,99602.01
2022-12-07T16:34:37.887Z,99606.56
2022-12-07T16:37:06.469Z,99607.39
2022-12-07T16:39:35.520Z,99609.92
2022-12-07T16:42:04.637Z,99610.27
2022-12-07T16:44:33.194Z,99607.45
2022-12-07T16:47:02.261Z,99609.30
2022-12-07T16:49:31.126Z,99608.87
2022-12-07T16:54:49.782Z,99608.94
2022-12-07T16:57:23.148Z,99608.36
2022-12-07T16:59:53.548Z,99613.45
2022-12-07T17:02:22.362Z,99608.80
2022-12-07T17:04:51.937Z,99612.27
2022-12-07T17:07:20.463Z,99618.10
2022-12-07T17:09:49.083Z,99616.32
2022-12-07T17:12:18.827Z,99615.71
2022-12-07T17:15:06.134Z,99616.05
2022-12-07T17:17:35.041Z,99615.67
2022-12-07T17:20:04.911Z,99621.87
2022-12-07T17:22:33.512Z,99623.29
2022-12-07T17:25:02.703Z,99629.36
2022-12-07T17:27:32.532Z,99624.38
2022-12-07T17:30:01.131Z,99623.85
2022-12-07T17:32:29.722Z,99626.06
2022-12-07T17:34:58.287Z,99625.05
2022-12-07T17:37:27.269Z,99623.99
2022-12-07T17:39:58.302Z,99626.39
2022-12-07T17:42:37.107Z,99621.29
2022-12-07T17:45:09.840Z,99622.49
2022-12-07T17:47:39.266Z,99621.09
2022-12-07T17:50:09.041Z,99618.13
2022-12-07T17:53:00.005Z,99615.54
2022-12-07T17:55:28.533Z,99617.29
2022-12-07T17:57:57.084Z,99617.09
2022-12-07T18:00:25.581Z,99621.38
2022-12-07T18:02:54.229Z,99625.28
2022-12-07T18:05:22.747Z,99627.02
2022-12-07T18:07:53.225Z,99625.98
2022-12-07T18:10:21.920Z,99628.55
2022-12-07T18:12:52.277Z,99623.23
2022-12-07T18:15:21.556Z,99622.88
2022-12-07T18:17:52.094Z,99623.83
2022-12-07T18:20:20.846Z,99623.44
2022-12-07T18:22:49.633Z,99623.22
2022-12-07T18:25:19.264Z,99621.92
2022-12-07T18:27:47.840Z,99620.03
2022-12-07T18:30:16.691Z,99623.35
2022-12-07T18:32:45.185Z,99624.71
2022-12-07T18:35:13.813Z,99625.17
2022-12-07T18:37:42.481Z,99623.52
2022-12-07T18:40:12.111Z,99624.31
2022-12-07T18:42:40.657Z,99627.39
2022-12-07T18:45:09.664Z,99628.20
2022-12-07T18:47:38.180Z,99626.52
2022-12-07T18:50:07.999Z,99626.52
2022-12-07T18:52:36.564Z,99624.71
2022-12-07T18:55:06.018Z,99624.39
2022-12-07T18:57:34.911Z,99621.89
2022-12-07T19:00:07.222Z,99620.23
2022-12-07T19:02:35.928Z,99619.46
2022-12-07T19:05:05.448Z,99622.47
2022-12-07T19:07:34.289Z,99623.89
2022-12-07T19:10:02.943Z,99625.80
2022-12-07T19:12:31.614Z,99624.27
2022-12-07T19:15:00.848Z,99624.55
2022-12-07T19:17:30.069Z,99627.08
2022-12-07T19:19:58.690Z,99629.45
2022-12-07T19:22:27.384Z,99625.34
2022-12-07T19:24:56.034Z,99622.35
2022-12-07T19:27:25.395Z,99618.38
2022-12-07T19:29:54.126Z,99622.51
2022-12-07T19:32:22.752Z,99619.75
2022-12-07T19:34:51.955Z,99621.51
2022-12-07T19:37:20.551Z,99626.14
2022-12-07T19:39:51.925Z,99627.34
2022-12-07T19:42:20.644Z,99629.65
2022-12-07T19:44:49.855Z,99634.89
2022-12-07T19:47:18.603Z,99634.31
2022-12-07T19:49:47.355Z,99634.84
2022-12-07T19:52:15.904Z,99635.86
2022-12-07T19:54:44.551Z,99632.63
2022-12-07T19:57:16.143Z,99630.33
2022-12-07T19:59:46.396Z,99630.74
2022-12-07T20:02:16.281Z,99631.20
2022-12-07T20:04:46.045Z,99628.41
2022-12-07T20:07:15.160Z,99628.64
2022-12-07T20:09:44.004Z,99627.65
2022-12-07T20:12:31.129Z,99622.15
2022-12-07T20:14:59.777Z,99622.65
2022-12-07T20:17:28.482Z,99623.02
2022-12-07T20:19:57.088Z,99622.85
2022-12-07T20:22:25.661Z,99624.08
2022-12-07T20:24:54.165Z,99624.29
2022-12-07T20:27:22.693Z,99625.39
2022-12-07T20:29:51.198Z,99622.70
2022-12-07T20:32:19.824Z,99625.34
2022-12-07T20:34:49.561Z,99628.59
2022-12-07T20:37:18.154Z,99627.63
2022-12-07T20:39:46.736Z,99633.98
2022-12-07T20:42:53.483Z,99633.48
2022-12-07T20:45:22.095Z,99634.77
2022-12-07T20:47:50.672Z,99635.45
2022-12-07T20:50:19.336Z,99635.20
2022-12-07T20:52:47.957Z,99636.45
2022-12-07T20:55:17.057Z,99641.66
2022-12-07T20:57:45.580Z,99635.44
2022-12-07T21:00:14.844Z,99635.45
2022-12-07T21:02:43.586Z,99635.42
2022-12-07T21:05:12.955Z,99636.44
2022-12-07T21:07:41.593Z,99639.08
2022-12-07T21:10:11.874Z,99639.13
2022-12-07T21:12:40.393Z,99642.48
2022-12-07T21:15:09.498Z,99641.09
2022-12-07T21:17:38.574Z,99636.35
2022-12-07T21:20:08.115Z,99634.30
2022-12-07T21:22:37.462Z,99635.31
2022-12-07T21:25:06.682Z,99630.30
2022-12-07T21:27:35.470Z,99633.92
2022-12-07T21:30:04.576Z,99637.34
2022-12-07T21:32:33.185Z,99641.34
2022-12-07T21:35:02.470Z,99642.77
2022-12-07T21:37:31.131Z,99643.42
2022-12-07T21:39:59.691Z,99644.59
2022-12-07T21:42:28.273Z,99648.51
2022-12-07T21:44:56.761Z,99644.33
2022-12-07T21:47:25.324Z,99642.10
2022-12-07T21:49:53.852Z,99642.79
2022-12-07T21:52:22.365Z,99648.89
2022-12-07T21:54:50.887Z,99647.13
2022-12-07T21:57:19.495Z,99657.45
2022-12-07T21:59:47.995Z,99649.31
2022-12-07T22:02:17.033Z,99647.90
2022-12-07T22:04:45.577Z,99649.19
2022-12-07T22:07:14.122Z,99657.61
2022-12-07T22:09:42.776Z,99655.94
2022-12-07T22:12:11.268Z,99654.63
2022-12-07T22:14:58.493Z,99658.08
2022-12-07T22:17:29.293Z,99657.70
2022-12-07T22:19:58.157Z,99660.67
2022-12-07T22:22:26.720Z,99656.64
2022-12-07T22:24:55.284Z,99658.29
2022-12-07T22:27:23.800Z,99657.98
2022-12-07T22:29:52.353Z,99656.64
2022-12-07T22:32:49.866Z,99657.38
2022-12-07T22:35:09.742Z,99661.08
2022-12-07T22:37:38.300Z,99661.98
2022-12-07T22:40:07.908Z,99662.27
2022-12-07T22:42:36.403Z,99662.38
2022-12-07T22:45:05.464Z,99662.30
2022-12-07T22:47:34.168Z,99661.08
2022-12-07T22:50:05.435Z,99653.09
2022-12-07T22:52:34.061Z,99658.68
2022-12-07T22:55:03.237Z,99659.09
2022-12-07T22:57:32.089Z,99661.69
2022-12-07T23:00:00.597Z,99658.20
2022-12-07T23:02:29.194Z,99664.76
2022-12-07T23:04:57.965Z,99657.10
2022-12-07T23:07:26.480Z,99661.92
2022-12-07T23:09:54.959Z,99662.38
2022-12-07T23:12:43.756Z,99661.44
2022-12-07T23:15:12.326Z,99665.57
2022-12-07T23:17:40.888Z,99662.85
2022-12-07T23:20:10.297Z,99662.45
2022-12-07T23:22:38.819Z,99659.66
2022-12-07T23:25:07.915Z,99659.96
2022-12-07T23:27:36.478Z,99658.17
2022-12-07T23:30:06.140Z,99658.88
2022-12-07T23:32:34.857Z,99658.86
2022-12-07T23:35:03.809Z,99658.48
2022-12-07T23:37:32.575Z,99665.16
2022-12-07T23:40:01.141Z,99667.23
2022-12-07T23:42:29.645Z,99668.67
2022-12-07T23:44:58.128Z,99671.30
2022-12-07T23:47:26.625Z,99671.46
2022-12-07T23:49:55.100Z,99672.32
2022-12-07T23:52:23.619Z,99666.70
2022-12-07T23:54:52.139Z,99665.35
2022-12-07T23:57:20.704Z,99661.19
2022-12-07T23:59:49.329Z,99667.86
